Amity, Arkansas
Current Conditions -  °F | °C
As of 2:53 PM on Thursday 23 Oct 2014 (Local Time) from KMWT Reporting Station
Broken Clouds Broken Clouds  
Wind Chill: 66°   Ceiling: 11000
Heat Index: 66°   Visibility: 10mi
Dew Point: 48°   Wind: 0mph
Humidity: 52%   Direction: NA
Pressure: 30.12"   Gusts: NA
Location:  34.26°N, 93.46°W
Report Text: KMWT 231953Z AUTO 00000KT 10SM BKN110 19/09 A3012 RMK AO2 SLP199 T01890089
Loading
Personal Weather Stations






























Interactive Weather Map
Tropical Storm Tracking
New forecast layout! Learn more

10-Day Weather Forecast

Advertisements
Track Severe Weather on mobile